sensor_id;sensor_type;location;lat;lon;timestamp;P1;durP1;ratioP1;P2;durP2;ratioP2
36291;SDS011;22327;51.208;6.418;2022-12-07T00:00:29;38.88;;;22.83;;
36291;SDS011;22327;51.208;6.418;2022-12-07T00:02:55;34.80;;;20.77;;
36291;SDS011;22327;51.208;6.418;2022-12-07T00:05:20;36.88;;;20.73;;
36291;SDS011;22327;51.208;6.418;2022-12-07T00:07:46;34.67;;;20.52;;
36291;SDS011;22327;51.208;6.418;2022-12-07T00:10:11;39.72;;;21.67;;
36291;SDS011;22327;51.208;6.418;2022-12-07T00:12:37;37.15;;;21.55;;
36291;SDS011;22327;51.208;6.418;2022-12-07T00:15:02;38.10;;;21.27;;
36291;SDS011;22327;51.208;6.418;2022-12-07T00:17:29;35.17;;;21.13;;
36291;SDS011;22327;51.208;6.418;2022-12-07T00:19:55;36.83;;;22.08;;
36291;SDS011;22327;51.208;6.418;2022-12-07T00:22:20;34.88;;;21.13;;
36291;SDS011;22327;51.208;6.418;2022-12-07T00:24:46;41.25;;;21.52;;
36291;SDS011;22327;51.208;6.418;2022-12-07T00:27:11;35.10;;;20.35;;
36291;SDS011;22327;51.208;6.418;2022-12-07T00:29:37;38.70;;;21.15;;
36291;SDS011;22327;51.208;6.418;2022-12-07T00:32:03;35.78;;;20.65;;
36291;SDS011;22327;51.208;6.418;2022-12-07T00:34:28;37.03;;;21.60;;
36291;SDS011;22327;51.208;6.418;2022-12-07T00:36:54;36.65;;;22.52;;
36291;SDS011;22327;51.208;6.418;2022-12-07T00:39:19;36.85;;;21.98;;
36291;SDS011;22327;51.208;6.418;2022-12-07T00:41:45;36.40;;;22.80;;
36291;SDS011;22327;51.208;6.418;2022-12-07T00:44:10;35.25;;;21.73;;
36291;SDS011;22327;51.208;6.418;2022-12-07T00:46:36;37.28;;;22.05;;
36291;SDS011;22327;51.208;6.418;2022-12-07T00:49:02;35.70;;;22.15;;
36291;SDS011;22327;51.208;6.418;2022-12-07T00:51:27;41.00;;;21.42;;
36291;SDS011;22327;51.208;6.418;2022-12-07T00:53:53;33.72;;;20.80;;
36291;SDS011;22327;51.208;6.418;2022-12-07T00:56:20;36.10;;;20.33;;
36291;SDS011;22327;51.208;6.418;2022-12-07T00:58:54;32.70;;;21.50;;
36291;SDS011;22327;51.208;6.418;2022-12-07T01:01:22;30.75;;;19.08;;
36291;SDS011;22327;51.208;6.418;2022-12-07T01:03:49;33.42;;;21.13;;
36291;SDS011;22327;51.208;6.418;2022-12-07T01:06:15;28.90;;;19.98;;
36291;SDS011;22327;51.208;6.418;2022-12-07T01:08:41;31.90;;;19.95;;
36291;SDS011;22327;51.208;6.418;2022-12-07T01:11:09;31.92;;;20.23;;
36291;SDS011;22327;51.208;6.418;2022-12-07T01:13:37;31.08;;;20.10;;
36291;SDS011;22327;51.208;6.418;2022-12-07T01:16:04;31.23;;;20.38;;
36291;SDS011;22327;51.208;6.418;2022-12-07T01:18:32;31.73;;;20.05;;
36291;SDS011;22327;51.208;6.418;2022-12-07T01:21:00;33.35;;;20.50;;
36291;SDS011;22327;51.208;6.418;2022-12-07T01:23:27;29.52;;;18.92;;
36291;SDS011;22327;51.208;6.418;2022-12-07T01:25:55;32.45;;;20.20;;
36291;SDS011;22327;51.208;6.418;2022-12-07T01:28:21;33.60;;;20.20;;
36291;SDS011;22327;51.208;6.418;2022-12-07T01:30:54;30.98;;;20.13;;
36291;SDS011;22327;51.208;6.418;2022-12-07T01:33:28;31.88;;;21.17;;
36291;SDS011;22327;51.208;6.418;2022-12-07T01:36:00;34.97;;;21.00;;
36291;SDS011;22327;51.208;6.418;2022-12-07T01:38:30;35.50;;;21.15;;
36291;SDS011;22327;51.208;6.418;2022-12-07T01:40:57;38.17;;;22.13;;
36291;SDS011;22327;51.208;6.418;2022-12-07T01:43:23;35.67;;;22.55;;
36291;SDS011;22327;51.208;6.418;2022-12-07T01:45:50;39.88;;;24.20;;
36291;SDS011;22327;51.208;6.418;2022-12-07T01:48:17;37.60;;;22.75;;
36291;SDS011;22327;51.208;6.418;2022-12-07T01:50:47;37.05;;;21.95;;
36291;SDS011;22327;51.208;6.418;2022-12-07T01:53:15;38.40;;;22.45;;
36291;SDS011;22327;51.208;6.418;2022-12-07T01:55:43;35.65;;;23.05;;
36291;SDS011;22327;51.208;6.418;2022-12-07T01:58:13;36.08;;;21.58;;
36291;SDS011;22327;51.208;6.418;2022-12-07T02:00:39;36.53;;;23.80;;
36291;SDS011;22327;51.208;6.418;2022-12-07T02:05:54;35.83;;;22.95;;
36291;SDS011;22327;51.208;6.418;2022-12-07T02:08:20;35.88;;;22.33;;
36291;SDS011;22327;51.208;6.418;2022-12-07T02:10:46;38.58;;;22.42;;
36291;SDS011;22327;51.208;6.418;2022-12-07T02:27:10;39.45;;;20.92;;
36291;SDS011;22327;51.208;6.418;2022-12-07T02:30:02;39.45;;;23.25;;
36291;SDS011;22327;51.208;6.418;2022-12-07T02:32:44;31.70;;;22.60;;
36291;SDS011;22327;51.208;6.418;2022-12-07T02:35:23;35.95;;;22.48;;
36291;SDS011;22327;51.208;6.418;2022-12-07T02:40:57;39.55;;;22.33;;
36291;SDS011;22327;51.208;6.418;2022-12-07T02:43:28;36.33;;;21.83;;
36291;SDS011;22327;51.208;6.418;2022-12-07T02:46:03;30.88;;;21.17;;
36291;SDS011;22327;51.208;6.418;2022-12-07T02:48:32;35.90;;;21.20;;
36291;SDS011;22327;51.208;6.418;2022-12-07T02:50:59;31.95;;;21.60;;
36291;SDS011;22327;51.208;6.418;2022-12-07T02:53:41;32.70;;;22.40;;
36291;SDS011;22327;51.208;6.418;2022-12-07T03:05:00;31.60;;;20.52;;
36291;SDS011;22327;51.208;6.418;2022-12-07T03:07:49;32.60;;;19.80;;
36291;SDS011;22327;51.208;6.418;2022-12-07T03:10:28;35.17;;;20.45;;
36291;SDS011;22327;51.208;6.418;2022-12-07T03:18:13;35.72;;;21.08;;
36291;SDS011;22327;51.208;6.418;2022-12-07T03:20:41;35.13;;;20.77;;
36291;SDS011;22327;51.208;6.418;2022-12-07T03:23:09;35.35;;;20.60;;
36291;SDS011;22327;51.208;6.418;2022-12-07T03:25:41;38.38;;;21.40;;
36291;SDS011;22327;51.208;6.418;2022-12-07T03:28:10;37.20;;;21.92;;
36291;SDS011;22327;51.208;6.418;2022-12-07T03:33:11;41.30;;;22.95;;
36291;SDS011;22327;51.208;6.418;2022-12-07T03:35:43;42.67;;;23.45;;
36291;SDS011;22327;51.208;6.418;2022-12-07T03:38:14;42.00;;;23.98;;
36291;SDS011;22327;51.208;6.418;2022-12-07T03:40:52;40.83;;;22.42;;
36291;SDS011;22327;51.208;6.418;2022-12-07T03:43:23;43.50;;;21.73;;
36291;SDS011;22327;51.208;6.418;2022-12-07T03:54:06;38.00;;;21.05;;
36291;SDS011;22327;51.208;6.418;2022-12-07T03:56:44;36.65;;;21.02;;
36291;SDS011;22327;51.208;6.418;2022-12-07T03:59:11;38.55;;;20.38;;
36291;SDS011;22327;51.208;6.418;2022-12-07T04:01:38;45.38;;;21.85;;
36291;SDS011;22327;51.208;6.418;2022-12-07T04:04:03;37.85;;;21.00;;
36291;SDS011;22327;51.208;6.418;2022-12-07T04:06:29;42.08;;;21.75;;
36291;SDS011;22327;51.208;6.418;2022-12-07T04:08:54;38.00;;;21.50;;
36291;SDS011;22327;51.208;6.418;2022-12-07T04:11:20;47.22;;;22.98;;
36291;SDS011;22327;51.208;6.418;2022-12-07T04:13:45;50.95;;;23.75;;
36291;SDS011;22327;51.208;6.418;2022-12-07T04:16:34;48.58;;;25.17;;
36291;SDS011;22327;51.208;6.418;2022-12-07T04:19:00;45.65;;;23.77;;
36291;SDS011;22327;51.208;6.418;2022-12-07T04:21:25;46.58;;;22.80;;
36291;SDS011;22327;51.208;6.418;2022-12-07T04:23:51;41.70;;;22.02;;
36291;SDS011;22327;51.208;6.418;2022-12-07T04:26:16;41.97;;;21.88;;
36291;SDS011;22327;51.208;6.418;2022-12-07T04:28:42;42.88;;;23.00;;
36291;SDS011;22327;51.208;6.418;2022-12-07T04:31:07;45.25;;;23.20;;
36291;SDS011;22327;51.208;6.418;2022-12-07T04:33:34;44.70;;;24.15;;
36291;SDS011;22327;51.208;6.418;2022-12-07T04:36:01;47.50;;;23.83;;
36291;SDS011;22327;51.208;6.418;2022-12-07T04:38:27;47.03;;;24.10;;
36291;SDS011;22327;51.208;6.418;2022-12-07T04:40:52;44.65;;;22.70;;
36291;SDS011;22327;51.208;6.418;2022-12-07T04:43:18;46.35;;;22.50;;
36291;SDS011;22327;51.208;6.418;2022-12-07T04:45:46;42.53;;;24.13;;
36291;SDS011;22327;51.208;6.418;2022-12-07T04:48:12;43.67;;;23.35;;
36291;SDS011;22327;51.208;6.418;2022-12-07T04:50:38;41.80;;;23.40;;
36291;SDS011;22327;51.208;6.418;2022-12-07T04:53:04;42.25;;;23.27;;
36291;SDS011;22327;51.208;6.418;2022-12-07T04:55:29;38.65;;;22.42;;
36291;SDS011;22327;51.208;6.418;2022-12-07T04:57:55;42.10;;;22.60;;
36291;SDS011;22327;51.208;6.418;2022-12-07T05:00:20;39.47;;;21.98;;
36291;SDS011;22327;51.208;6.418;2022-12-07T05:02:46;41.97;;;21.52;;
36291;SDS011;22327;51.208;6.418;2022-12-07T05:05:11;38.45;;;20.58;;
36291;SDS011;22327;51.208;6.418;2022-12-07T05:07:37;46.20;;;20.88;;
36291;SDS011;22327;51.208;6.418;2022-12-07T05:10:03;42.65;;;21.60;;
36291;SDS011;22327;51.208;6.418;2022-12-07T05:12:28;42.65;;;21.75;;
36291;SDS011;22327;51.208;6.418;2022-12-07T05:14:54;42.88;;;22.23;;
36291;SDS011;22327;51.208;6.418;2022-12-07T05:17:19;47.03;;;22.45;;
36291;SDS011;22327;51.208;6.418;2022-12-07T05:19:45;49.47;;;23.63;;
36291;SDS011;22327;51.208;6.418;2022-12-07T05:22:10;48.00;;;23.50;;
36291;SDS011;22327;51.208;6.418;2022-12-07T05:24:36;48.30;;;24.38;;
36291;SDS011;22327;51.208;6.418;2022-12-07T05:27:02;47.88;;;22.65;;
36291;SDS011;22327;51.208;6.418;2022-12-07T05:29:27;42.30;;;23.13;;
36291;SDS011;22327;51.208;6.418;2022-12-07T05:31:53;42.17;;;22.33;;
36291;SDS011;22327;51.208;6.418;2022-12-07T05:34:18;43.80;;;23.65;;
36291;SDS011;22327;51.208;6.418;2022-12-07T05:36:44;42.05;;;22.10;;
36291;SDS011;22327;51.208;6.418;2022-12-07T05:39:09;41.90;;;21.50;;
36291;SDS011;22327;51.208;6.418;2022-12-07T05:41:35;43.83;;;21.60;;
36291;SDS011;22327;51.208;6.418;2022-12-07T05:44:19;41.22;;;21.83;;
36291;SDS011;22327;51.208;6.418;2022-12-07T05:46:45;42.35;;;22.60;;
36291;SDS011;22327;51.208;6.418;2022-12-07T05:49:11;42.13;;;21.13;;
36291;SDS011;22327;51.208;6.418;2022-12-07T05:51:36;41.60;;;20.85;;
36291;SDS011;22327;51.208;6.418;2022-12-07T05:54:02;38.88;;;20.88;;
36291;SDS011;22327;51.208;6.418;2022-12-07T05:56:27;39.35;;;20.80;;
36291;SDS011;22327;51.208;6.418;2022-12-07T05:58:53;40.67;;;20.73;;
36291;SDS011;22327;51.208;6.418;2022-12-07T06:01:37;40.65;;;21.50;;
36291;SDS011;22327;51.208;6.418;2022-12-07T06:04:03;38.53;;;20.48;;
36291;SDS011;22327;51.208;6.418;2022-12-07T06:06:28;39.17;;;21.85;;
36291;SDS011;22327;51.208;6.418;2022-12-07T06:08:54;34.33;;;20.13;;
36291;SDS011;22327;51.208;6.418;2022-12-07T06:11:19;32.00;;;20.15;;
36291;SDS011;22327;51.208;6.418;2022-12-07T06:14:03;33.30;;;18.65;;
36291;SDS011;22327;51.208;6.418;2022-12-07T06:16:29;32.95;;;19.90;;
36291;SDS011;22327;51.208;6.418;2022-12-07T06:18:55;34.08;;;18.73;;
36291;SDS011;22327;51.208;6.418;2022-12-07T06:21:20;33.17;;;18.30;;
36291;SDS011;22327;51.208;6.418;2022-12-07T06:23:46;27.80;;;17.63;;
36291;SDS011;22327;51.208;6.418;2022-12-07T06:26:12;29.92;;;17.90;;
36291;SDS011;22327;51.208;6.418;2022-12-07T06:28:38;33.25;;;16.30;;
36291;SDS011;22327;51.208;6.418;2022-12-07T06:31:04;26.45;;;16.40;;
36291;SDS011;22327;51.208;6.418;2022-12-07T06:33:29;30.65;;;16.42;;
36291;SDS011;22327;51.208;6.418;2022-12-07T06:35:55;27.48;;;14.50;;
36291;SDS011;22327;51.208;6.418;2022-12-07T06:38:20;27.00;;;13.90;;
36291;SDS011;22327;51.208;6.418;2022-12-07T06:40:46;25.10;;;14.27;;
36291;SDS011;22327;51.208;6.418;2022-12-07T06:43:13;26.80;;;13.30;;
36291;SDS011;22327;51.208;6.418;2022-12-07T06:45:38;29.60;;;15.15;;
36291;SDS011;22327;51.208;6.418;2022-12-07T06:48:05;26.15;;;13.98;;
36291;SDS011;22327;51.208;6.418;2022-12-07T06:50:30;27.70;;;13.32;;
36291;SDS011;22327;51.208;6.418;2022-12-07T06:52:56;25.25;;;13.18;;
36291;SDS011;22327;51.208;6.418;2022-12-07T06:55:21;29.40;;;13.82;;
36291;SDS011;22327;51.208;6.418;2022-12-07T06:57:47;23.15;;;13.38;;
36291;SDS011;22327;51.208;6.418;2022-12-07T07:00:12;26.38;;;12.98;;
36291;SDS011;22327;51.208;6.418;2022-12-07T07:02:38;27.60;;;14.93;;
36291;SDS011;22327;51.208;6.418;2022-12-07T07:05:04;31.52;;;13.55;;
36291;SDS011;22327;51.208;6.418;2022-12-07T07:07:29;23.52;;;13.80;;
36291;SDS011;22327;51.208;6.418;2022-12-07T07:09:55;24.38;;;12.70;;
36291;SDS011;22327;51.208;6.418;2022-12-07T07:12:20;28.83;;;14.45;;
36291;SDS011;22327;51.208;6.418;2022-12-07T07:14:46;27.85;;;13.90;;
36291;SDS011;22327;51.208;6.418;2022-12-07T07:17:12;32.90;;;15.73;;
36291;SDS011;22327;51.208;6.418;2022-12-07T07:19:38;31.60;;;15.45;;
36291;SDS011;22327;51.208;6.418;2022-12-07T07:22:03;32.80;;;15.55;;
36291;SDS011;22327;51.208;6.418;2022-12-07T07:24:29;32.63;;;15.02;;
36291;SDS011;22327;51.208;6.418;2022-12-07T07:26:55;33.47;;;16.40;;
36291;SDS011;22327;51.208;6.418;2022-12-07T07:29:20;32.00;;;16.50;;
36291;SDS011;22327;51.208;6.418;2022-12-07T07:31:46;34.05;;;16.02;;
36291;SDS011;22327;51.208;6.418;2022-12-07T07:34:11;32.25;;;16.73;;
36291;SDS011;22327;51.208;6.418;2022-12-07T07:36:37;37.25;;;16.42;;
36291;SDS011;22327;51.208;6.418;2022-12-07T07:39:02;32.13;;;16.00;;
36291;SDS011;22327;51.208;6.418;2022-12-07T07:41:28;33.03;;;16.90;;
36291;SDS011;22327;51.208;6.418;2022-12-07T07:43:54;34.50;;;17.17;;
36291;SDS011;22327;51.208;6.418;2022-12-07T07:46:19;32.17;;;16.33;;
36291;SDS011;22327;51.208;6.418;2022-12-07T07:48:45;35.88;;;17.23;;
36291;SDS011;22327;51.208;6.418;2022-12-07T07:51:10;34.15;;;16.58;;
36291;SDS011;22327;51.208;6.418;2022-12-07T07:53:36;33.55;;;16.98;;
36291;SDS011;22327;51.208;6.418;2022-12-07T07:56:02;35.78;;;17.20;;
36291;SDS011;22327;51.208;6.418;2022-12-07T07:58:28;33.55;;;17.05;;
36291;SDS011;22327;51.208;6.418;2022-12-07T08:00:53;37.30;;;17.50;;
36291;SDS011;22327;51.208;6.418;2022-12-07T08:03:19;38.08;;;18.02;;
36291;SDS011;22327;51.208;6.418;2022-12-07T08:05:45;32.88;;;16.48;;
36291;SDS011;22327;51.208;6.418;2022-12-07T08:08:10;35.78;;;17.58;;
36291;SDS011;22327;51.208;6.418;2022-12-07T08:10:36;28.58;;;16.27;;
36291;SDS011;22327;51.208;6.418;2022-12-07T08:13:02;29.88;;;16.80;;
36291;SDS011;22327;51.208;6.418;2022-12-07T08:15:39;30.83;;;16.42;;
36291;SDS011;22327;51.208;6.418;2022-12-07T08:18:05;28.52;;;16.88;;
36291;SDS011;22327;51.208;6.418;2022-12-07T08:20:32;27.17;;;15.73;;
36291;SDS011;22327;51.208;6.418;2022-12-07T08:22:59;26.13;;;15.02;;
36291;SDS011;22327;51.208;6.418;2022-12-07T08:25:25;24.17;;;14.15;;
36291;SDS011;22327;51.208;6.418;2022-12-07T08:27:51;26.20;;;14.43;;
36291;SDS011;22327;51.208;6.418;2022-12-07T08:30:17;23.98;;;14.27;;
36291;SDS011;22327;51.208;6.418;2022-12-07T08:32:44;27.90;;;14.55;;
36291;SDS011;22327;51.208;6.418;2022-12-07T08:35:10;22.70;;;14.35;;
36291;SDS011;22327;51.208;6.418;2022-12-07T08:37:36;22.60;;;13.75;;
36291;SDS011;22327;51.208;6.418;2022-12-07T08:40:02;25.75;;;14.82;;
36291;SDS011;22327;51.208;6.418;2022-12-07T08:42:28;24.00;;;14.65;;
36291;SDS011;22327;51.208;6.418;2022-12-07T08:45:02;30.42;;;16.00;;
36291;SDS011;22327;51.208;6.418;2022-12-07T08:47:36;26.55;;;16.45;;
36291;SDS011;22327;51.208;6.418;2022-12-07T08:50:05;26.90;;;16.17;;
36291;SDS011;22327;51.208;6.418;2022-12-07T08:52:33;27.25;;;15.77;;
36291;SDS011;22327;51.208;6.418;2022-12-07T08:54:59;34.50;;;17.33;;
36291;SDS011;22327;51.208;6.418;2022-12-07T08:57:26;23.67;;;14.18;;
36291;SDS011;22327;51.208;6.418;2022-12-07T08:59:53;17.70;;;12.73;;
36291;SDS011;22327;51.208;6.418;2022-12-07T09:02:19;19.23;;;12.43;;
36291;SDS011;22327;51.208;6.418;2022-12-07T09:04:45;15.40;;;11.60;;
36291;SDS011;22327;51.208;6.418;2022-12-07T09:07:10;17.83;;;11.93;;
36291;SDS011;22327;51.208;6.418;2022-12-07T09:09:36;16.13;;;11.07;;
36291;SDS011;22327;51.208;6.418;2022-12-07T09:12:01;16.65;;;11.85;;
36291;SDS011;22327;51.208;6.418;2022-12-07T09:14:27;17.33;;;11.00;;
36291;SDS011;22327;51.208;6.418;2022-12-07T09:16:53;21.15;;;11.77;;
36291;SDS011;22327;51.208;6.418;2022-12-07T09:19:18;17.83;;;12.20;;
36291;SDS011;22327;51.208;6.418;2022-12-07T09:21:44;18.85;;;11.88;;
36291;SDS011;22327;51.208;6.418;2022-12-07T09:24:11;16.60;;;12.00;;
36291;SDS011;22327;51.208;6.418;2022-12-07T09:26:37;17.50;;;11.82;;
36291;SDS011;22327;51.208;6.418;2022-12-07T09:29:04;14.52;;;11.38;;
36291;SDS011;22327;51.208;6.418;2022-12-07T09:31:29;19.10;;;11.80;;
36291;SDS011;22327;51.208;6.418;2022-12-07T09:33:55;16.42;;;10.48;;
36291;SDS011;22327;51.208;6.418;2022-12-07T09:36:22;14.30;;;10.20;;
36291;SDS011;22327;51.208;6.418;2022-12-07T09:38:47;14.25;;;10.25;;
36291;SDS011;22327;51.208;6.418;2022-12-07T09:41:13;15.65;;;10.07;;
36291;SDS011;22327;51.208;6.418;2022-12-07T09:43:40;16.65;;;9.88;;
36291;SDS011;22327;51.208;6.418;2022-12-07T09:46:08;14.82;;;9.02;;
36291;SDS011;22327;51.208;6.418;2022-12-07T09:48:39;12.25;;;8.85;;
36291;SDS011;22327;51.208;6.418;2022-12-07T09:54:00;17.40;;;9.70;;
36291;SDS011;22327;51.208;6.418;2022-12-07T09:56:28;12.40;;;8.73;;
36291;SDS011;22327;51.208;6.418;2022-12-07T09:58:59;14.43;;;9.82;;
36291;SDS011;22327;51.208;6.418;2022-12-07T10:01:33;13.65;;;8.55;;
36291;SDS011;22327;51.208;6.418;2022-12-07T10:04:13;13.65;;;9.35;;
36291;SDS011;22327;51.208;6.418;2022-12-07T10:06:47;12.13;;;8.13;;
36291;SDS011;22327;51.208;6.418;2022-12-07T10:09:14;13.02;;;8.75;;
36291;SDS011;22327;51.208;6.418;2022-12-07T10:12:00;11.13;;;7.90;;
36291;SDS011;22327;51.208;6.418;2022-12-07T10:14:36;11.87;;;7.97;;
36291;SDS011;22327;51.208;6.418;2022-12-07T10:22:54;12.27;;;8.48;;
36291;SDS011;22327;51.208;6.418;2022-12-07T10:25:20;12.88;;;8.45;;
36291;SDS011;22327;51.208;6.418;2022-12-07T10:28:08;12.00;;;8.48;;
36291;SDS011;22327;51.208;6.418;2022-12-07T10:30:46;14.18;;;10.32;;
36291;SDS011;22327;51.208;6.418;2022-12-07T10:33:30;14.00;;;8.88;;
36291;SDS011;22327;51.208;6.418;2022-12-07T10:36:15;14.60;;;9.15;;
36291;SDS011;22327;51.208;6.418;2022-12-07T10:38:49;12.18;;;8.85;;
36291;SDS011;22327;51.208;6.418;2022-12-07T10:41:17;14.82;;;8.73;;
36291;SDS011;22327;51.208;6.418;2022-12-07T10:43:54;11.82;;;7.85;;
36291;SDS011;22327;51.208;6.418;2022-12-07T10:46:43;12.25;;;8.43;;
36291;SDS011;22327;51.208;6.418;2022-12-07T10:49:59;13.90;;;8.43;;
36291;SDS011;22327;51.208;6.418;2022-12-07T10:52:16;14.57;;;8.38;;
36291;SDS011;22327;51.208;6.418;2022-12-07T10:55:08;14.20;;;9.13;;
36291;SDS011;22327;51.208;6.418;2022-12-07T11:00:43;15.60;;;10.52;;
36291;SDS011;22327;51.208;6.418;2022-12-07T11:06:28;18.25;;;11.65;;
36291;SDS011;22327;51.208;6.418;2022-12-07T11:14:58;12.68;;;9.98;;
36291;SDS011;22327;51.208;6.418;2022-12-07T11:20:45;11.35;;;6.53;;
36291;SDS011;22327;51.208;6.418;2022-12-07T11:29:13;8.38;;;5.65;;
36291;SDS011;22327;51.208;6.418;2022-12-07T11:34:47;9.20;;;4.95;;
36291;SDS011;22327;51.208;6.418;2022-12-07T11:37:32;10.27;;;4.80;;
36291;SDS011;22327;51.208;6.418;2022-12-07T11:42:52;8.40;;;4.97;;
36291;SDS011;22327;51.208;6.418;2022-12-07T11:45:29;7.95;;;4.43;;
36291;SDS011;22327;51.208;6.418;2022-12-07T11:48:02;9.35;;;4.75;;
36291;SDS011;22327;51.208;6.418;2022-12-07T12:03:53;8.40;;;3.92;;
36291;SDS011;22327;51.208;6.418;2022-12-07T12:11:41;7.20;;;3.50;;
36291;SDS011;22327;51.208;6.418;2022-12-07T12:14:34;7.25;;;3.60;;
36291;SDS011;22327;51.208;6.418;2022-12-07T12:17:16;7.20;;;3.95;;
36291;SDS011;22327;51.208;6.418;2022-12-07T12:22:50;8.35;;;3.67;;
36291;SDS011;22327;51.208;6.418;2022-12-07T12:25:39;7.47;;;3.42;;
36291;SDS011;22327;51.208;6.418;2022-12-07T12:28:16;8.02;;;3.50;;
36291;SDS011;22327;51.208;6.418;2022-12-07T12:33:46;5.93;;;3.05;;
36291;SDS011;22327;51.208;6.418;2022-12-07T12:44:38;8.18;;;3.20;;
36291;SDS011;22327;51.208;6.418;2022-12-07T12:54:23;6.45;;;3.65;;
36291;SDS011;22327;51.208;6.418;2022-12-07T13:02:29;5.50;;;3.45;;
36291;SDS011;22327;51.208;6.418;2022-12-07T13:15:35;6.45;;;2.60;;
36291;SDS011;22327;51.208;6.418;2022-12-07T13:20:59;6.50;;;2.10;;
36291;SDS011;22327;51.208;6.418;2022-12-07T13:26:22;3.97;;;1.90;;
36291;SDS011;22327;51.208;6.418;2022-12-07T13:31:42;6.40;;;2.15;;
36291;SDS011;22327;51.208;6.418;2022-12-07T13:34:37;6.35;;;2.25;;
36291;SDS011;22327;51.208;6.418;2022-12-07T13:37:14;6.13;;;2.90;;
36291;SDS011;22327;51.208;6.418;2022-12-07T13:39:47;4.18;;;1.95;;
36291;SDS011;22327;51.208;6.418;2022-12-07T13:42:21;5.38;;;2.05;;
36291;SDS011;22327;51.208;6.418;2022-12-07T13:44:55;5.00;;;2.00;;
36291;SDS011;22327;51.208;6.418;2022-12-07T13:47:32;7.35;;;1.90;;
36291;SDS011;22327;51.208;6.418;2022-12-07T13:50:00;4.35;;;2.05;;
36291;SDS011;22327;51.208;6.418;2022-12-07T13:52:27;8.45;;;1.63;;
36291;SDS011;22327;51.208;6.418;2022-12-07T13:57:25;7.45;;;1.60;;
36291;SDS011;22327;51.208;6.418;2022-12-07T13:59:52;6.30;;;2.28;;
36291;SDS011;22327;51.208;6.418;2022-12-07T14:02:22;6.10;;;1.92;;
36291;SDS011;22327;51.208;6.418;2022-12-07T14:05:15;4.22;;;1.80;;
36291;SDS011;22327;51.208;6.418;2022-12-07T14:10:24;5.85;;;2.10;;
36291;SDS011;22327;51.208;6.418;2022-12-07T14:12:51;6.65;;;1.88;;
36291;SDS011;22327;51.208;6.418;2022-12-07T14:15:21;7.63;;;2.17;;
36291;SDS011;22327;51.208;6.418;2022-12-07T14:17:52;9.82;;;2.60;;
36291;SDS011;22327;51.208;6.418;2022-12-07T14:23:27;8.73;;;3.10;;
36291;SDS011;22327;51.208;6.418;2022-12-07T14:25:53;7.68;;;3.03;;
36291;SDS011;22327;51.208;6.418;2022-12-07T14:28:26;10.10;;;2.50;;
36291;SDS011;22327;51.208;6.418;2022-12-07T14:30:53;3.90;;;2.78;;
36291;SDS011;22327;51.208;6.418;2022-12-07T14:33:19;6.82;;;2.90;;
36291;SDS011;22327;51.208;6.418;2022-12-07T14:35:46;11.73;;;6.03;;
36291;SDS011;22327;51.208;6.418;2022-12-07T14:38:11;10.23;;;4.78;;
36291;SDS011;22327;51.208;6.418;2022-12-07T14:40:37;6.05;;;3.08;;
36291;SDS011;22327;51.208;6.418;2022-12-07T14:43:05;6.78;;;3.80;;
36291;SDS011;22327;51.208;6.418;2022-12-07T14:45:33;7.97;;;3.75;;
36291;SDS011;22327;51.208;6.418;2022-12-07T14:47:59;9.38;;;3.67;;
36291;SDS011;22327;51.208;6.418;2022-12-07T14:50:24;6.07;;;3.30;;
36291;SDS011;22327;51.208;6.418;2022-12-07T14:52:59;5.95;;;3.10;;
36291;SDS011;22327;51.208;6.418;2022-12-07T14:55:27;6.78;;;2.92;;
36291;SDS011;22327;51.208;6.418;2022-12-07T14:57:54;7.07;;;2.80;;
36291;SDS011;22327;51.208;6.418;2022-12-07T15:00:21;6.15;;;2.88;;
36291;SDS011;22327;51.208;6.418;2022-12-07T15:02:48;5.88;;;3.20;;
36291;SDS011;22327;51.208;6.418;2022-12-07T15:05:15;3.45;;;3.00;;
36291;SDS011;22327;51.208;6.418;2022-12-07T15:07:41;4.35;;;2.83;;
36291;SDS011;22327;51.208;6.418;2022-12-07T15:10:40;5.47;;;2.88;;
36291;SDS011;22327;51.208;6.418;2022-12-07T15:13:00;9.88;;;3.63;;
36291;SDS011;22327;51.208;6.418;2022-12-07T15:15:46;4.82;;;3.15;;
36291;SDS011;22327;51.208;6.418;2022-12-07T15:18:12;7.13;;;3.22;;
36291;SDS011;22327;51.208;6.418;2022-12-07T15:20:38;7.88;;;3.30;;
36291;SDS011;22327;51.208;6.418;2022-12-07T15:23:04;8.55;;;3.58;;
36291;SDS011;22327;51.208;6.418;2022-12-07T15:25:30;9.43;;;3.47;;
36291;SDS011;22327;51.208;6.418;2022-12-07T15:27:55;9.45;;;4.20;;
36291;SDS011;22327;51.208;6.418;2022-12-07T15:30:21;12.32;;;7.80;;
36291;SDS011;22327;51.208;6.418;2022-12-07T15:32:50;5.72;;;4.50;;
36291;SDS011;22327;51.208;6.418;2022-12-07T15:35:16;6.32;;;4.43;;
36291;SDS011;22327;51.208;6.418;2022-12-07T15:37:42;6.60;;;4.20;;
36291;SDS011;22327;51.208;6.418;2022-12-07T15:40:07;8.02;;;4.53;;
36291;SDS011;22327;51.208;6.418;2022-12-07T15:42:34;10.13;;;4.53;;
36291;SDS011;22327;51.208;6.418;2022-12-07T15:45:00;6.82;;;4.15;;
36291;SDS011;22327;51.208;6.418;2022-12-07T15:47:29;7.22;;;4.57;;
36291;SDS011;22327;51.208;6.418;2022-12-07T15:50:06;9.55;;;5.30;;
36291;SDS011;22327;51.208;6.418;2022-12-07T15:52:34;12.10;;;6.53;;
36291;SDS011;22327;51.208;6.418;2022-12-07T15:54:59;11.38;;;6.05;;
36291;SDS011;22327;51.208;6.418;2022-12-07T15:57:27;8.43;;;5.35;;
36291;SDS011;22327;51.208;6.418;2022-12-07T15:59:53;8.90;;;6.95;;
36291;SDS011;22327;51.208;6.418;2022-12-07T16:02:18;11.80;;;7.38;;
36291;SDS011;22327;51.208;6.418;2022-12-07T16:04:44;8.48;;;6.35;;
36291;SDS011;22327;51.208;6.418;2022-12-07T16:07:10;9.65;;;6.50;;
36291;SDS011;22327;51.208;6.418;2022-12-07T16:09:36;7.85;;;5.57;;
36291;SDS011;22327;51.208;6.418;2022-12-07T16:12:02;10.98;;;5.88;;
36291;SDS011;22327;51.208;6.418;2022-12-07T16:14:28;9.32;;;5.80;;
36291;SDS011;22327;51.208;6.418;2022-12-07T16:16:54;11.57;;;7.07;;
36291;SDS011;22327;51.208;6.418;2022-12-07T16:19:20;11.27;;;8.15;;
36291;SDS011;22327;51.208;6.418;2022-12-07T16:21:46;11.15;;;7.28;;
36291;SDS011;22327;51.208;6.418;2022-12-07T16:24:11;11.93;;;8.23;;
36291;SDS011;22327;51.208;6.418;2022-12-07T16:26:39;13.27;;;7.07;;
36291;SDS011;22327;51.208;6.418;2022-12-07T16:29:05;9.38;;;6.97;;
36291;SDS011;22327;51.208;6.418;2022-12-07T16:31:31;12.98;;;8.30;;
36291;SDS011;22327;51.208;6.418;2022-12-07T16:33:57;12.50;;;7.00;;
36291;SDS011;22327;51.208;6.418;2022-12-07T16:36:23;10.63;;;8.27;;
36291;SDS011;22327;51.208;6.418;2022-12-07T16:38:50;11.77;;;9.75;;
36291;SDS011;22327;51.208;6.418;2022-12-07T16:41:16;11.55;;;8.95;;
36291;SDS011;22327;51.208;6.418;2022-12-07T16:43:41;20.67;;;12.10;;
36291;SDS011;22327;51.208;6.418;2022-12-07T16:46:07;12.13;;;9.50;;
36291;SDS011;22327;51.208;6.418;2022-12-07T16:48:34;13.07;;;8.38;;
36291;SDS011;22327;51.208;6.418;2022-12-07T16:51:04;12.88;;;8.93;;
36291;SDS011;22327;51.208;6.418;2022-12-07T16:53:31;14.93;;;9.18;;
36291;SDS011;22327;51.208;6.418;2022-12-07T16:55:57;15.00;;;9.80;;
36291;SDS011;22327;51.208;6.418;2022-12-07T16:58:22;14.98;;;11.02;;
36291;SDS011;22327;51.208;6.418;2022-12-07T17:00:48;19.40;;;14.70;;
36291;SDS011;22327;51.208;6.418;2022-12-07T17:03:14;17.55;;;12.63;;
36291;SDS011;22327;51.208;6.418;2022-12-07T17:05:42;12.93;;;10.45;;
36291;SDS011;22327;51.208;6.418;2022-12-07T17:08:09;23.05;;;16.67;;
36291;SDS011;22327;51.208;6.418;2022-12-07T17:10:36;20.15;;;13.88;;